WetterOnline ( https://www.wetteronline.de )

Wetter aktuell Baben

Aktuelles Wetter: Gardelegen (48m)

6-stündlich | Neueste Meldungen
Ortszeit Temperatur Wetter
Do, 27.01. 7:00 3.7° C bedeckt
Do, 27.01. 1:00 3.3° C bedeckt
Mi, 26.01. 19:00 2.4° C bewölkt
Mi, 26.01. 13:00 1.6° C bedeckt
Mi, 26.01. 7:00 2.6° C bedeckt
Mi, 26.01. 1:00 2.8° C Sprühregen
Di, 25.01. 19:00 3.9° C bewölkt
Di, 25.01. 13:00 4.3° C bedeckt
Ortszeit Temperatur Wetter
Do, 27.01. 7:10 3.5° C bedeckt
Do, 27.01. 7:00 3.7° C bedeckt
Do, 27.01. 6:50 3.7° C bedeckt
Do, 27.01. 6:40 3.8° C bedeckt
Do, 27.01. 6:30 3.8° C bedeckt
Do, 27.01. 6:20 3.8° C bedeckt
Do, 27.01. 6:00 3.9° C bedeckt
Do, 27.01. 5:30 3.9° C bedeckt
Do, 27.01. 5:00 3.9° C bedeckt
Do, 27.01. 4:30 4.0° C bedeckt
Ortszeit Relative Feuchte Sichtweite
Do, 27.01. 7:00 78% 14 km
Do, 27.01. 1:00 92% 11 km
Mi, 26.01. 19:00 92% 4.0 km
Mi, 26.01. 13:00 88% 7 km
Mi, 26.01. 7:00 91% 14 km
Mi, 26.01. 1:00 92% 9 km
Di, 25.01. 19:00 96% 6 km
Di, 25.01. 13:00 89% 10 km
Ortszeit Relative Feuchte Sichtweite
Do, 27.01. 7:10 78% -
Do, 27.01. 7:00 78% 14 km
Do, 27.01. 6:50 78% -
Do, 27.01. 6:40 78% -
Do, 27.01. 6:30 80% 13 km
Do, 27.01. 6:20 80% -
Do, 27.01. 6:00 81% 15 km
Do, 27.01. 5:30 82% 20 km
Do, 27.01. 5:00 84% 27 km
Do, 27.01. 4:30 85% 26 km
Ortszeit Niederschlagsmenge Niederschlagsart
Do, 27.01. 7:00 0.1 l/m2 in 12 Std. -
Do, 27.01. 1:00 0.1 l/m2 in 6 Std. Sprühregen
Mi, 26.01. 19:00 0.1 l/m2 in 12 Std. -
Mi, 26.01. 13:00 0.1 l/m2 in 6 Std. Regen
Mi, 26.01. 7:00 0.1 l/m2 in 12 Std. Regen
Mi, 26.01. 1:00 0.1 l/m2 in 6 Std. Regen
Di, 25.01. 19:00 0.1 l/m2 in 12 Std. Sprühregen
Di, 25.01. 13:00 0.1 l/m2 in 6 Std. Regen
Ortszeit Niederschlagsmenge Niederschlagsart
Do, 27.01. 7:10 keine Meldung -
Do, 27.01. 7:00 0.0 l/m2 in 1 Std. -
Do, 27.01. 6:50 keine Meldung -
Do, 27.01. 6:40 keine Meldung -
Do, 27.01. 6:30 0.0 l/m2 in 1 Std. -
Do, 27.01. 6:20 keine Meldung -
Do, 27.01. 6:00 0.0 l/m2 in 1 Std. -
Do, 27.01. 5:30 0.0 l/m2 in 1 Std. -
Do, 27.01. 5:00 0.0 l/m2 in 1 Std. -
Do, 27.01. 4:30 0.0 l/m2 in 1 Std. -
Ortszeit Stärke Spitze Richtung
km/h Bft. km/h Grad Sektor
Do, 27.01. 7:00 31 5 57 240° SW
Do, 27.01. 1:00 20 4 37 250° W
Mi, 26.01. 19:00 18 3 40 260° W
Mi, 26.01. 13:00 14 3 32 270° W
Mi, 26.01. 7:00 13 3 24 260° W
Mi, 26.01. 1:00 15 3 24 260° W
Di, 25.01. 19:00 11 2 26 260° W
Di, 25.01. 13:00 11 2 22 280° W
Ortszeit Stärke Spitze Richtung
km/h Bft. km/h Grad Sektor
Do, 27.01. 7:10 30 5 - 250° W
Do, 27.01. 7:00 31 5 56 240° SW
Do, 27.01. 6:50 31 5 - 240° SW
Do, 27.01. 6:40 31 5 - 250° W
Do, 27.01. 6:30 29 5 54 250° W
Do, 27.01. 6:20 29 5 - 250° W
Do, 27.01. 6:00 31 5 56 250° W
Do, 27.01. 5:30 26 4 44 240° SW
Do, 27.01. 5:00 25 4 58 240° SW
Do, 27.01. 4:30 25 4 43 240° SW
Ortszeit Untergrenze Bedeckung Gattung
total tief tief mittel hoch
Do, 27.01. 7:00 510 m 8/8 8/8 - - -
Do, 27.01. 1:00 210 m 8/8 8/8 - - -
Mi, 26.01. 19:00 240 m 7/8 7/8 - - -
Mi, 26.01. 13:00 360 m 8/8 8/8 - - -
Mi, 26.01. 7:00 270 m 8/8 8/8 - - -
Mi, 26.01. 1:00 210 m 6/8 6/8 - - -
Di, 25.01. 19:00 150 m 7/8 7/8 - - -
Di, 25.01. 13:00 270 m 8/8 8/8 - - -
Ortszeit Bedeckungsgrad in Achtel und Wolkenuntergrenze
Do, 27.01. 7:10 8
Do, 27.01. 7:00 8(510m)
Do, 27.01. 6:50 8(510m)
Do, 27.01. 6:40 8
Do, 27.01. 6:30 8(510m)
Do, 27.01. 6:20 8(510m)
Do, 27.01. 6:00 8(480m)
Do, 27.01. 5:30 8(450m)
Do, 27.01. 5:00 8(420m)
Do, 27.01. 4:30 8(390m)
Ortszeit Luftdruck NN (hPa) Tendenz (hPa in 3 Std.)
Do, 27.01. 7:00 1019 - 2,3
Do, 27.01. 1:00 1024 - 1,8
Mi, 26.01. 19:00 1027 - 0,8
Mi, 26.01. 13:00 1030 + 0,1
Mi, 26.01. 7:00 1030 - 1,0
Mi, 26.01. 1:00 1031 - 0,7
Di, 25.01. 19:00 1032 + 0,4
Di, 25.01. 13:00 1033 - 0,5
Ortszeit Luftdruck NN (hPa) Tendenz (hPa in 3 Std.)
Do, 27.01. 7:10 1019 keine Meldung
Do, 27.01. 7:00 1019 - 2,3
Do, 27.01. 6:50 1019 keine Meldung
Do, 27.01. 6:40 1019 keine Meldung
Do, 27.01. 6:30 1019 - 2,1
Do, 27.01. 6:20 1019 keine Meldung
Do, 27.01. 6:00 1020 - 2,7
Do, 27.01. 5:30 1020 - 2,6
Do, 27.01. 5:00 1021 - 2,4
Do, 27.01. 4:30 1021 - 2,9
Ortszeit Schneehöhe (cm)
Do, 27.01. 7:00 0
Do, 27.01. 1:00 0
Mi, 26.01. 19:00 0
Mi, 26.01. 13:00 0
Mi, 26.01. 7:00 0
Mi, 26.01. 1:00 0
Di, 25.01. 19:00 0
Di, 25.01. 13:00 0
Ortszeit Schneehöhe (cm)
Do, 27.01. 7:10 0
Do, 27.01. 7:00 0
Do, 27.01. 6:50 0
Do, 27.01. 6:40 0
Do, 27.01. 6:30 0
Do, 27.01. 6:20 0
Do, 27.01. 6:00 0
Do, 27.01. 5:30 0
Do, 27.01. 5:00 0
Do, 27.01. 4:30 0
Link zu dieser Seite / Seite empfehlen

Das Wetter in ...